sensor_id;sensor_type;location;lat;lon;timestamp;P1;durP1;ratioP1;P2;durP2;ratioP2
18391;SDS011;9322;50.932;5.318;2022-08-01T00:00:10;5.82;;;1.90;;
18391;SDS011;9322;50.932;5.318;2022-08-01T00:02:37;3.15;;;1.65;;
18391;SDS011;9322;50.932;5.318;2022-08-01T00:05:03;4.07;;;1.85;;
18391;SDS011;9322;50.932;5.318;2022-08-01T00:07:30;4.00;;;1.60;;
18391;SDS011;9322;50.932;5.318;2022-08-01T00:09:57;5.22;;;1.60;;
18391;SDS011;9322;50.932;5.318;2022-08-01T00:12:22;3.40;;;1.80;;
18391;SDS011;9322;50.932;5.318;2022-08-01T00:14:48;6.75;;;2.20;;
18391;SDS011;9322;50.932;5.318;2022-08-01T00:17:14;4.53;;;1.70;;
18391;SDS011;9322;50.932;5.318;2022-08-01T00:19:40;5.90;;;1.55;;
18391;SDS011;9322;50.932;5.318;2022-08-01T00:22:06;5.05;;;1.52;;
18391;SDS011;9322;50.932;5.318;2022-08-01T00:24:32;3.85;;;1.60;;
18391;SDS011;9322;50.932;5.318;2022-08-01T00:26:57;3.75;;;1.40;;
18391;SDS011;9322;50.932;5.318;2022-08-01T00:29:23;3.88;;;2.00;;
18391;SDS011;9322;50.932;5.318;2022-08-01T00:31:49;4.10;;;1.70;;
18391;SDS011;9322;50.932;5.318;2022-08-01T00:34:14;6.68;;;1.80;;
18391;SDS011;9322;50.932;5.318;2022-08-01T00:36:40;5.97;;;1.80;;
18391;SDS011;9322;50.932;5.318;2022-08-01T00:39:06;3.20;;;1.83;;
18391;SDS011;9322;50.932;5.318;2022-08-01T00:41:31;4.78;;;1.83;;
18391;SDS011;9322;50.932;5.318;2022-08-01T00:43:57;4.43;;;1.77;;
18391;SDS011;9322;50.932;5.318;2022-08-01T00:46:23;5.07;;;1.75;;
18391;SDS011;9322;50.932;5.318;2022-08-01T00:48:48;2.65;;;1.60;;
18391;SDS011;9322;50.932;5.318;2022-08-01T00:51:14;4.25;;;2.05;;
18391;SDS011;9322;50.932;5.318;2022-08-01T00:53:41;6.28;;;1.83;;
18391;SDS011;9322;50.932;5.318;2022-08-01T00:56:07;4.97;;;2.00;;
18391;SDS011;9322;50.932;5.318;2022-08-01T00:58:33;5.65;;;1.90;;
18391;SDS011;9322;50.932;5.318;2022-08-01T01:00:59;5.43;;;1.80;;
18391;SDS011;9322;50.932;5.318;2022-08-01T01:03:25;5.10;;;1.60;;
18391;SDS011;9322;50.932;5.318;2022-08-01T01:08:59;2.72;;;1.52;;
18391;SDS011;9322;50.932;5.318;2022-08-01T01:11:48;4.25;;;1.80;;
18391;SDS011;9322;50.932;5.318;2022-08-01T01:14:50;3.80;;;1.65;;
18391;SDS011;9322;50.932;5.318;2022-08-01T01:17:27;4.50;;;1.67;;
18391;SDS011;9322;50.932;5.318;2022-08-01T01:19:57;3.83;;;1.85;;
18391;SDS011;9322;50.932;5.318;2022-08-01T01:22:29;4.30;;;1.50;;
18391;SDS011;9322;50.932;5.318;2022-08-01T01:28:02;4.40;;;1.30;;
18391;SDS011;9322;50.932;5.318;2022-08-01T01:30:34;6.10;;;1.88;;
18391;SDS011;9322;50.932;5.318;2022-08-01T01:33:05;3.58;;;1.90;;
18391;SDS011;9322;50.932;5.318;2022-08-01T01:35:33;12.38;;;2.00;;
18391;SDS011;9322;50.932;5.318;2022-08-01T01:38:02;5.50;;;1.92;;
18391;SDS011;9322;50.932;5.318;2022-08-01T01:40:32;3.38;;;1.65;;
18391;SDS011;9322;50.932;5.318;2022-08-01T01:42:59;4.25;;;2.00;;
18391;SDS011;9322;50.932;5.318;2022-08-01T01:45:25;9.35;;;2.33;;
18391;SDS011;9322;50.932;5.318;2022-08-01T01:47:52;5.43;;;1.98;;
18391;SDS011;9322;50.932;5.318;2022-08-01T01:50:22;3.28;;;1.85;;
18391;SDS011;9322;50.932;5.318;2022-08-01T01:52:49;9.32;;;2.40;;
18391;SDS011;9322;50.932;5.318;2022-08-01T01:55:16;4.43;;;2.00;;
18391;SDS011;9322;50.932;5.318;2022-08-01T01:57:45;5.97;;;1.83;;
18391;SDS011;9322;50.932;5.318;2022-08-01T02:00:12;4.45;;;1.88;;
18391;SDS011;9322;50.932;5.318;2022-08-01T02:02:39;7.78;;;1.92;;
18391;SDS011;9322;50.932;5.318;2022-08-01T02:05:07;4.88;;;2.20;;
18391;SDS011;9322;50.932;5.318;2022-08-01T02:07:35;5.80;;;2.20;;
18391;SDS011;9322;50.932;5.318;2022-08-01T02:10:03;10.20;;;2.38;;
18391;SDS011;9322;50.932;5.318;2022-08-01T02:12:36;7.15;;;2.67;;
18391;SDS011;9322;50.932;5.318;2022-08-01T02:15:06;7.50;;;2.42;;
18391;SDS011;9322;50.932;5.318;2022-08-01T02:17:34;6.80;;;2.70;;
18391;SDS011;9322;50.932;5.318;2022-08-01T02:20:05;8.73;;;3.17;;
18391;SDS011;9322;50.932;5.318;2022-08-01T02:22:40;9.38;;;3.30;;
18391;SDS011;9322;50.932;5.318;2022-08-01T02:27:44;5.53;;;2.90;;
18391;SDS011;9322;50.932;5.318;2022-08-01T02:30:15;6.93;;;3.10;;
18391;SDS011;9322;50.932;5.318;2022-08-01T02:32:53;8.98;;;3.28;;
18391;SDS011;9322;50.932;5.318;2022-08-01T02:35:27;7.45;;;3.00;;
18391;SDS011;9322;50.932;5.318;2022-08-01T02:37:55;10.48;;;3.33;;
18391;SDS011;9322;50.932;5.318;2022-08-01T02:40:23;11.65;;;3.47;;
18391;SDS011;9322;50.932;5.318;2022-08-01T02:42:53;6.30;;;3.17;;
18391;SDS011;9322;50.932;5.318;2022-08-01T02:45:22;7.00;;;3.47;;
18391;SDS011;9322;50.932;5.318;2022-08-01T02:47:51;11.75;;;3.60;;
18391;SDS011;9322;50.932;5.318;2022-08-01T02:50:28;7.63;;;3.40;;
18391;SDS011;9322;50.932;5.318;2022-08-01T02:52:55;6.43;;;3.88;;
18391;SDS011;9322;50.932;5.318;2022-08-01T02:55:22;4.88;;;3.10;;
18391;SDS011;9322;50.932;5.318;2022-08-01T02:57:49;7.40;;;3.78;;
18391;SDS011;9322;50.932;5.318;2022-08-01T03:00:18;10.85;;;3.83;;
18391;SDS011;9322;50.932;5.318;2022-08-01T03:02:44;6.45;;;3.42;;
18391;SDS011;9322;50.932;5.318;2022-08-01T03:05:11;11.23;;;3.58;;
18391;SDS011;9322;50.932;5.318;2022-08-01T03:07:39;10.38;;;3.92;;
18391;SDS011;9322;50.932;5.318;2022-08-01T03:10:06;7.32;;;3.67;;
18391;SDS011;9322;50.932;5.318;2022-08-01T03:12:33;8.20;;;3.60;;
18391;SDS011;9322;50.932;5.318;2022-08-01T03:15:01;7.95;;;3.55;;
18391;SDS011;9322;50.932;5.318;2022-08-01T03:17:29;11.35;;;3.85;;
18391;SDS011;9322;50.932;5.318;2022-08-01T03:19:58;12.07;;;3.72;;
18391;SDS011;9322;50.932;5.318;2022-08-01T03:22:25;12.50;;;4.25;;
18391;SDS011;9322;50.932;5.318;2022-08-01T03:24:53;6.55;;;3.83;;
18391;SDS011;9322;50.932;5.318;2022-08-01T03:27:21;7.07;;;4.30;;
18391;SDS011;9322;50.932;5.318;2022-08-01T03:29:49;10.65;;;4.47;;
18391;SDS011;9322;50.932;5.318;2022-08-01T03:32:16;7.95;;;4.20;;
18391;SDS011;9322;50.932;5.318;2022-08-01T03:34:44;13.40;;;4.20;;
18391;SDS011;9322;50.932;5.318;2022-08-01T03:39:44;7.75;;;4.57;;
18391;SDS011;9322;50.932;5.318;2022-08-01T03:42:18;11.38;;;4.85;;
18391;SDS011;9322;50.932;5.318;2022-08-01T03:44:51;11.95;;;5.10;;
18391;SDS011;9322;50.932;5.318;2022-08-01T03:47:19;13.57;;;5.40;;
18391;SDS011;9322;50.932;5.318;2022-08-01T03:49:50;11.63;;;4.75;;
18391;SDS011;9322;50.932;5.318;2022-08-01T03:52:17;9.40;;;4.53;;
18391;SDS011;9322;50.932;5.318;2022-08-01T03:54:46;10.50;;;5.07;;
18391;SDS011;9322;50.932;5.318;2022-08-01T03:57:14;10.73;;;5.15;;
18391;SDS011;9322;50.932;5.318;2022-08-01T03:59:40;13.90;;;4.95;;
18391;SDS011;9322;50.932;5.318;2022-08-01T04:02:07;13.02;;;4.93;;
18391;SDS011;9322;50.932;5.318;2022-08-01T04:04:33;9.32;;;5.20;;
18391;SDS011;9322;50.932;5.318;2022-08-01T04:06:59;8.02;;;5.03;;
18391;SDS011;9322;50.932;5.318;2022-08-01T04:09:31;10.40;;;5.10;;
18391;SDS011;9322;50.932;5.318;2022-08-01T04:12:00;10.43;;;5.10;;
18391;SDS011;9322;50.932;5.318;2022-08-01T04:14:26;12.00;;;5.07;;
18391;SDS011;9322;50.932;5.318;2022-08-01T04:16:55;10.85;;;5.03;;
18391;SDS011;9322;50.932;5.318;2022-08-01T04:19:21;12.13;;;5.63;;
18391;SDS011;9322;50.932;5.318;2022-08-01T04:21:47;10.07;;;5.75;;
18391;SDS011;9322;50.932;5.318;2022-08-01T04:24:14;14.18;;;5.60;;
18391;SDS011;9322;50.932;5.318;2022-08-01T04:26:43;14.13;;;4.95;;
18391;SDS011;9322;50.932;5.318;2022-08-01T04:29:11;14.27;;;5.18;;
18391;SDS011;9322;50.932;5.318;2022-08-01T04:31:39;11.75;;;5.22;;
18391;SDS011;9322;50.932;5.318;2022-08-01T04:34:09;11.93;;;5.18;;
18391;SDS011;9322;50.932;5.318;2022-08-01T04:36:39;12.88;;;5.00;;
18391;SDS011;9322;50.932;5.318;2022-08-01T04:39:07;13.20;;;5.53;;
18391;SDS011;9322;50.932;5.318;2022-08-01T04:41:34;12.60;;;4.97;;
18391;SDS011;9322;50.932;5.318;2022-08-01T04:44:02;16.98;;;5.50;;
18391;SDS011;9322;50.932;5.318;2022-08-01T04:46:29;13.82;;;5.78;;
18391;SDS011;9322;50.932;5.318;2022-08-01T04:48:57;11.93;;;5.35;;
18391;SDS011;9322;50.932;5.318;2022-08-01T04:51:23;17.58;;;6.80;;
18391;SDS011;9322;50.932;5.318;2022-08-01T04:53:49;14.15;;;6.00;;
18391;SDS011;9322;50.932;5.318;2022-08-01T04:56:16;15.02;;;6.22;;
18391;SDS011;9322;50.932;5.318;2022-08-01T04:58:42;11.57;;;6.50;;
18391;SDS011;9322;50.932;5.318;2022-08-01T05:01:08;11.73;;;6.32;;
18391;SDS011;9322;50.932;5.318;2022-08-01T05:03:35;14.48;;;6.68;;
18391;SDS011;9322;50.932;5.318;2022-08-01T05:06:00;18.92;;;6.38;;
18391;SDS011;9322;50.932;5.318;2022-08-01T05:08:26;20.73;;;7.47;;
18391;SDS011;9322;50.932;5.318;2022-08-01T05:10:52;23.67;;;8.50;;
18391;SDS011;9322;50.932;5.318;2022-08-01T05:13:18;19.10;;;8.88;;
18391;SDS011;9322;50.932;5.318;2022-08-01T05:15:44;22.30;;;9.95;;
18391;SDS011;9322;50.932;5.318;2022-08-01T05:18:10;23.60;;;10.43;;
18391;SDS011;9322;50.932;5.318;2022-08-01T05:20:36;20.13;;;10.52;;
18391;SDS011;9322;50.932;5.318;2022-08-01T05:23:02;27.75;;;10.80;;
18391;SDS011;9322;50.932;5.318;2022-08-01T05:25:29;24.85;;;11.05;;
18391;SDS011;9322;50.932;5.318;2022-08-01T05:27:54;22.70;;;11.82;;
18391;SDS011;9322;50.932;5.318;2022-08-01T05:30:20;22.35;;;12.00;;
18391;SDS011;9322;50.932;5.318;2022-08-01T05:32:46;28.95;;;13.35;;
18391;SDS011;9322;50.932;5.318;2022-08-01T05:35:11;24.70;;;11.95;;
18391;SDS011;9322;50.932;5.318;2022-08-01T05:37:37;25.27;;;12.27;;
18391;SDS011;9322;50.932;5.318;2022-08-01T05:40:03;24.17;;;12.00;;
18391;SDS011;9322;50.932;5.318;2022-08-01T05:42:30;24.05;;;12.00;;
18391;SDS011;9322;50.932;5.318;2022-08-01T05:44:56;22.52;;;12.77;;
18391;SDS011;9322;50.932;5.318;2022-08-01T05:47:21;23.42;;;12.05;;
18391;SDS011;9322;50.932;5.318;2022-08-01T05:49:47;19.73;;;11.27;;
18391;SDS011;9322;50.932;5.318;2022-08-01T05:52:13;22.95;;;11.70;;
18391;SDS011;9322;50.932;5.318;2022-08-01T05:54:39;24.13;;;11.98;;
18391;SDS011;9322;50.932;5.318;2022-08-01T05:57:05;19.58;;;9.55;;
18391;SDS011;9322;50.932;5.318;2022-08-01T05:59:31;23.58;;;9.85;;
18391;SDS011;9322;50.932;5.318;2022-08-01T06:01:57;18.60;;;9.57;;
18391;SDS011;9322;50.932;5.318;2022-08-01T06:04:23;17.98;;;9.13;;
18391;SDS011;9322;50.932;5.318;2022-08-01T06:06:48;21.27;;;9.82;;
18391;SDS011;9322;50.932;5.318;2022-08-01T06:09:14;23.20;;;9.95;;
18391;SDS011;9322;50.932;5.318;2022-08-01T06:11:40;21.15;;;8.93;;
18391;SDS011;9322;50.932;5.318;2022-08-01T06:14:06;17.23;;;8.82;;
18391;SDS011;9322;50.932;5.318;2022-08-01T06:16:31;19.17;;;9.65;;
18391;SDS011;9322;50.932;5.318;2022-08-01T06:18:57;17.33;;;9.15;;
18391;SDS011;9322;50.932;5.318;2022-08-01T06:21:23;16.02;;;9.57;;
18391;SDS011;9322;50.932;5.318;2022-08-01T06:23:48;15.63;;;8.65;;
18391;SDS011;9322;50.932;5.318;2022-08-01T06:26:17;17.85;;;10.65;;
18391;SDS011;9322;50.932;5.318;2022-08-01T06:28:43;20.67;;;11.32;;
18391;SDS011;9322;50.932;5.318;2022-08-01T06:31:08;21.95;;;12.68;;
18391;SDS011;9322;50.932;5.318;2022-08-01T06:33:36;20.42;;;10.90;;
18391;SDS011;9322;50.932;5.318;2022-08-01T06:36:02;21.23;;;11.18;;
18391;SDS011;9322;50.932;5.318;2022-08-01T06:38:28;21.65;;;11.98;;
18391;SDS011;9322;50.932;5.318;2022-08-01T06:40:54;23.40;;;12.57;;
18391;SDS011;9322;50.932;5.318;2022-08-01T06:43:20;19.38;;;11.48;;
18391;SDS011;9322;50.932;5.318;2022-08-01T06:45:46;21.92;;;11.32;;
18391;SDS011;9322;50.932;5.318;2022-08-01T06:48:12;21.73;;;11.38;;
18391;SDS011;9322;50.932;5.318;2022-08-01T06:50:37;24.63;;;11.23;;
18391;SDS011;9322;50.932;5.318;2022-08-01T06:53:03;22.20;;;10.45;;
18391;SDS011;9322;50.932;5.318;2022-08-01T06:55:29;21.13;;;10.48;;
18391;SDS011;9322;50.932;5.318;2022-08-01T06:57:54;22.92;;;11.25;;
18391;SDS011;9322;50.932;5.318;2022-08-01T07:00:21;19.23;;;9.55;;
18391;SDS011;9322;50.932;5.318;2022-08-01T07:02:49;20.45;;;9.95;;
18391;SDS011;9322;50.932;5.318;2022-08-01T07:05:18;20.40;;;9.93;;
18391;SDS011;9322;50.932;5.318;2022-08-01T07:07:45;13.80;;;8.52;;
18391;SDS011;9322;50.932;5.318;2022-08-01T07:10:10;15.18;;;8.32;;
18391;SDS011;9322;50.932;5.318;2022-08-01T07:12:36;13.80;;;8.27;;
18391;SDS011;9322;50.932;5.318;2022-08-01T07:15:05;20.80;;;8.75;;
18391;SDS011;9322;50.932;5.318;2022-08-01T07:17:36;14.45;;;7.30;;
18391;SDS011;9322;50.932;5.318;2022-08-01T07:20:02;11.93;;;6.78;;
18391;SDS011;9322;50.932;5.318;2022-08-01T07:22:28;13.73;;;6.53;;
18391;SDS011;9322;50.932;5.318;2022-08-01T07:24:54;12.60;;;7.45;;
18391;SDS011;9322;50.932;5.318;2022-08-01T07:27:20;10.13;;;6.30;;
18391;SDS011;9322;50.932;5.318;2022-08-01T07:29:45;14.95;;;7.13;;
18391;SDS011;9322;50.932;5.318;2022-08-01T07:32:11;13.85;;;6.57;;
18391;SDS011;9322;50.932;5.318;2022-08-01T07:34:37;13.38;;;6.80;;
18391;SDS011;9322;50.932;5.318;2022-08-01T07:37:02;10.93;;;6.55;;
18391;SDS011;9322;50.932;5.318;2022-08-01T07:39:28;14.50;;;5.90;;
18391;SDS011;9322;50.932;5.318;2022-08-01T07:41:54;8.35;;;4.70;;
18391;SDS011;9322;50.932;5.318;2022-08-01T07:44:20;10.90;;;5.05;;
18391;SDS011;9322;50.932;5.318;2022-08-01T07:46:46;8.88;;;4.65;;
18391;SDS011;9322;50.932;5.318;2022-08-01T07:49:11;7.13;;;4.28;;
18391;SDS011;9322;50.932;5.318;2022-08-01T07:51:37;9.05;;;4.63;;
18391;SDS011;9322;50.932;5.318;2022-08-01T07:54:03;8.93;;;4.90;;
18391;SDS011;9322;50.932;5.318;2022-08-01T07:56:28;7.78;;;4.60;;
18391;SDS011;9322;50.932;5.318;2022-08-01T07:58:54;8.65;;;5.25;;
18391;SDS011;9322;50.932;5.318;2022-08-01T08:01:19;7.25;;;4.70;;
18391;SDS011;9322;50.932;5.318;2022-08-01T08:03:45;10.93;;;5.15;;
18391;SDS011;9322;50.932;5.318;2022-08-01T08:06:11;14.52;;;5.13;;
18391;SDS011;9322;50.932;5.318;2022-08-01T08:08:37;10.60;;;4.78;;
18391;SDS011;9322;50.932;5.318;2022-08-01T08:11:03;10.18;;;4.85;;
18391;SDS011;9322;50.932;5.318;2022-08-01T08:13:28;10.32;;;5.32;;
18391;SDS011;9322;50.932;5.318;2022-08-01T08:15:54;10.10;;;5.47;;
18391;SDS011;9322;50.932;5.318;2022-08-01T08:18:20;8.65;;;5.70;;
18391;SDS011;9322;50.932;5.318;2022-08-01T08:20:46;9.27;;;4.97;;
18391;SDS011;9322;50.932;5.318;2022-08-01T08:23:12;9.32;;;4.90;;
18391;SDS011;9322;50.932;5.318;2022-08-01T08:25:58;5.97;;;4.38;;
18391;SDS011;9322;50.932;5.318;2022-08-01T08:28:23;6.88;;;4.00;;
18391;SDS011;9322;50.932;5.318;2022-08-01T08:30:49;4.40;;;3.45;;
18391;SDS011;9322;50.932;5.318;2022-08-01T08:33:15;4.65;;;3.67;;
18391;SDS011;9322;50.932;5.318;2022-08-01T08:35:41;6.00;;;3.30;;
18391;SDS011;9322;50.932;5.318;2022-08-01T08:38:07;7.63;;;4.38;;
18391;SDS011;9322;50.932;5.318;2022-08-01T08:40:32;5.32;;;4.10;;
18391;SDS011;9322;50.932;5.318;2022-08-01T08:43:00;6.22;;;3.90;;
18391;SDS011;9322;50.932;5.318;2022-08-01T08:45:29;5.63;;;3.50;;
18391;SDS011;9322;50.932;5.318;2022-08-01T08:47:55;5.40;;;3.40;;
18391;SDS011;9322;50.932;5.318;2022-08-01T08:50:21;7.75;;;3.42;;
18391;SDS011;9322;50.932;5.318;2022-08-01T08:52:48;5.13;;;3.20;;
18391;SDS011;9322;50.932;5.318;2022-08-01T08:55:16;3.92;;;3.13;;
18391;SDS011;9322;50.932;5.318;2022-08-01T08:57:43;5.75;;;3.35;;
18391;SDS011;9322;50.932;5.318;2022-08-01T09:00:09;3.28;;;2.90;;
18391;SDS011;9322;50.932;5.318;2022-08-01T09:02:40;4.75;;;3.20;;
18391;SDS011;9322;50.932;5.318;2022-08-01T09:05:08;4.47;;;3.60;;
18391;SDS011;9322;50.932;5.318;2022-08-01T09:07:34;5.00;;;3.53;;
18391;SDS011;9322;50.932;5.318;2022-08-01T09:09:59;3.88;;;3.47;;
18391;SDS011;9322;50.932;5.318;2022-08-01T09:12:25;3.80;;;3.50;;
18391;SDS011;9322;50.932;5.318;2022-08-01T09:14:51;5.07;;;3.42;;
18391;SDS011;9322;50.932;5.318;2022-08-01T09:17:18;3.17;;;2.85;;
18391;SDS011;9322;50.932;5.318;2022-08-01T09:19:49;5.22;;;3.22;;
18391;SDS011;9322;50.932;5.318;2022-08-01T09:22:20;3.92;;;3.13;;
18391;SDS011;9322;50.932;5.318;2022-08-01T09:27:33;3.63;;;2.58;;
18391;SDS011;9322;50.932;5.318;2022-08-01T09:30:20;3.17;;;2.30;;
18391;SDS011;9322;50.932;5.318;2022-08-01T09:32:56;3.75;;;2.20;;
18391;SDS011;9322;50.932;5.318;2022-08-01T09:35:29;2.38;;;1.90;;
18391;SDS011;9322;50.932;5.318;2022-08-01T09:38:24;3.05;;;1.80;;
18391;SDS011;9322;50.932;5.318;2022-08-01T09:40:53;5.63;;;2.05;;
18391;SDS011;9322;50.932;5.318;2022-08-01T09:43:21;3.65;;;1.90;;
18391;SDS011;9322;50.932;5.318;2022-08-01T09:45:49;4.80;;;1.73;;
18391;SDS011;9322;50.932;5.318;2022-08-01T09:48:14;2.95;;;1.90;;
18391;SDS011;9322;50.932;5.318;2022-08-01T09:50:44;3.20;;;2.33;;
18391;SDS011;9322;50.932;5.318;2022-08-01T09:53:11;2.28;;;1.90;;
18391;SDS011;9322;50.932;5.318;2022-08-01T09:55:38;2.00;;;1.75;;
18391;SDS011;9322;50.932;5.318;2022-08-01T09:58:05;3.65;;;2.30;;
18391;SDS011;9322;50.932;5.318;2022-08-01T10:00:32;3.17;;;2.10;;
18391;SDS011;9322;50.932;5.318;2022-08-01T10:02:59;2.58;;;1.67;;
18391;SDS011;9322;50.932;5.318;2022-08-01T10:05:42;8.85;;;1.98;;
18391;SDS011;9322;50.932;5.318;2022-08-01T10:08:08;2.10;;;1.80;;
18391;SDS011;9322;50.932;5.318;2022-08-01T10:10:35;1.90;;;1.70;;
18391;SDS011;9322;50.932;5.318;2022-08-01T10:13:01;2.30;;;1.48;;
18391;SDS011;9322;50.932;5.318;2022-08-01T10:15:27;2.60;;;1.42;;
18391;SDS011;9322;50.932;5.318;2022-08-01T10:17:55;3.33;;;1.70;;
18391;SDS011;9322;50.932;5.318;2022-08-01T10:20:32;2.78;;;1.70;;
18391;SDS011;9322;50.932;5.318;2022-08-01T10:23:01;2.55;;;1.80;;
18391;SDS011;9322;50.932;5.318;2022-08-01T10:25:28;3.50;;;2.10;;
18391;SDS011;9322;50.932;5.318;2022-08-01T10:27:58;3.65;;;2.10;;
18391;SDS011;9322;50.932;5.318;2022-08-01T10:30:26;3.13;;;1.95;;
18391;SDS011;9322;50.932;5.318;2022-08-01T10:32:53;3.05;;;2.00;;
18391;SDS011;9322;50.932;5.318;2022-08-01T10:35:20;5.63;;;2.10;;
18391;SDS011;9322;50.932;5.318;2022-08-01T10:37:47;2.67;;;1.67;;
18391;SDS011;9322;50.932;5.318;2022-08-01T10:40:14;3.47;;;1.73;;
18391;SDS011;9322;50.932;5.318;2022-08-01T10:42:43;2.78;;;1.40;;
18391;SDS011;9322;50.932;5.318;2022-08-01T10:45:11;3.42;;;1.40;;
18391;SDS011;9322;50.932;5.318;2022-08-01T10:48:02;3.53;;;1.38;;
18391;SDS011;9322;50.932;5.318;2022-08-01T10:50:32;2.25;;;1.70;;
18391;SDS011;9322;50.932;5.318;2022-08-01T10:55:45;2.33;;;1.48;;
18391;SDS011;9322;50.932;5.318;2022-08-01T10:58:11;1.63;;;1.52;;
18391;SDS011;9322;50.932;5.318;2022-08-01T11:00:37;2.20;;;1.60;;
18391;SDS011;9322;50.932;5.318;2022-08-01T11:03:03;1.70;;;1.60;;
18391;SDS011;9322;50.932;5.318;2022-08-01T11:05:32;5.68;;;1.60;;
18391;SDS011;9322;50.932;5.318;2022-08-01T11:08:21;2.78;;;1.88;;
18391;SDS011;9322;50.932;5.318;2022-08-01T11:10:46;2.13;;;1.40;;
18391;SDS011;9322;50.932;5.318;2022-08-01T11:13:12;1.50;;;1.40;;
18391;SDS011;9322;50.932;5.318;2022-08-01T11:15:39;5.82;;;1.60;;
18391;SDS011;9322;50.932;5.318;2022-08-01T11:18:28;2.25;;;1.50;;
18391;SDS011;9322;50.932;5.318;2022-08-01T11:20:55;1.63;;;1.40;;
18391;SDS011;9322;50.932;5.318;2022-08-01T11:23:27;2.20;;;1.45;;
18391;SDS011;9322;50.932;5.318;2022-08-01T11:28:21;1.60;;;1.50;;
18391;SDS011;9322;50.932;5.318;2022-08-01T11:38:36;5.43;;;2.00;;
18391;SDS011;9322;50.932;5.318;2022-08-01T11:46:47;4.55;;;1.90;;
18391;SDS011;9322;50.932;5.318;2022-08-01T11:54:52;2.08;;;1.60;;
18391;SDS011;9322;50.932;5.318;2022-08-01T11:57:27;2.03;;;1.50;;
18391;SDS011;9322;50.932;5.318;2022-08-01T12:00:10;4.47;;;1.90;;
18391;SDS011;9322;50.932;5.318;2022-08-01T12:02:37;3.35;;;1.77;;
18391;SDS011;9322;50.932;5.318;2022-08-01T12:05:09;2.45;;;1.77;;
18391;SDS011;9322;50.932;5.318;2022-08-01T12:07:37;1.90;;;1.60;;
18391;SDS011;9322;50.932;5.318;2022-08-01T12:10:05;1.60;;;1.50;;
18391;SDS011;9322;50.932;5.318;2022-08-01T12:12:33;2.95;;;1.50;;
18391;SDS011;9322;50.932;5.318;2022-08-01T12:15:04;2.30;;;1.63;;
18391;SDS011;9322;50.932;5.318;2022-08-01T12:17:35;2.10;;;1.65;;
18391;SDS011;9322;50.932;5.318;2022-08-01T12:20:04;1.63;;;1.30;;
18391;SDS011;9322;50.932;5.318;2022-08-01T12:22:31;1.40;;;1.30;;
18391;SDS011;9322;50.932;5.318;2022-08-01T12:25:11;1.90;;;1.40;;
18391;SDS011;9322;50.932;5.318;2022-08-01T12:27:39;1.42;;;1.33;;
18391;SDS011;9322;50.932;5.318;2022-08-01T12:30:07;1.42;;;1.00;;
18391;SDS011;9322;50.932;5.318;2022-08-01T12:32:35;2.05;;;1.38;;
18391;SDS011;9322;50.932;5.318;2022-08-01T12:35:12;1.67;;;1.15;;
18391;SDS011;9322;50.932;5.318;2022-08-01T12:37:43;1.65;;;0.98;;
18391;SDS011;9322;50.932;5.318;2022-08-01T12:42:40;1.30;;;1.10;;
18391;SDS011;9322;50.932;5.318;2022-08-01T12:45:07;4.25;;;1.20;;
18391;SDS011;9322;50.932;5.318;2022-08-01T12:47:35;1.80;;;1.30;;
18391;SDS011;9322;50.932;5.318;2022-08-01T12:50:05;2.33;;;1.25;;
18391;SDS011;9322;50.932;5.318;2022-08-01T12:52:32;1.92;;;1.00;;
18391;SDS011;9322;50.932;5.318;2022-08-01T12:55:31;2.15;;;1.38;;
18391;SDS011;9322;50.932;5.318;2022-08-01T12:58:10;3.75;;;1.20;;
18391;SDS011;9322;50.932;5.318;2022-08-01T13:00:38;2.70;;;1.20;;
18391;SDS011;9322;50.932;5.318;2022-08-01T13:06:09;1.52;;;1.08;;
18391;SDS011;9322;50.932;5.318;2022-08-01T13:08:33;2.30;;;1.20;;
18391;SDS011;9322;50.932;5.318;2022-08-01T13:11:00;2.83;;;1.33;;
18391;SDS011;9322;50.932;5.318;2022-08-01T13:13:46;3.58;;;1.40;;
18391;SDS011;9322;50.932;5.318;2022-08-01T13:16:13;4.18;;;1.20;;
18391;SDS011;9322;50.932;5.318;2022-08-01T13:18:40;2.72;;;1.20;;
18391;SDS011;9322;50.932;5.318;2022-08-01T13:21:12;4.18;;;1.33;;
18391;SDS011;9322;50.932;5.318;2022-08-01T13:23:39;3.10;;;1.40;;
18391;SDS011;9322;50.932;5.318;2022-08-01T13:26:07;4.97;;;1.40;;
18391;SDS011;9322;50.932;5.318;2022-08-01T13:28:33;4.30;;;1.40;;
18391;SDS011;9322;50.932;5.318;2022-08-01T13:31:02;3.10;;;1.48;;
18391;SDS011;9322;50.932;5.318;2022-08-01T13:33:45;2.95;;;1.52;;
18391;SDS011;9322;50.932;5.318;2022-08-01T13:36:13;2.45;;;1.58;;
18391;SDS011;9322;50.932;5.318;2022-08-01T13:38:40;3.72;;;1.60;;
18391;SDS011;9322;50.932;5.318;2022-08-01T13:41:25;4.18;;;1.50;;
18391;SDS011;9322;50.932;5.318;2022-08-01T13:43:51;1.83;;;1.40;;
18391;SDS011;9322;50.932;5.318;2022-08-01T13:46:17;3.53;;;1.45;;
18391;SDS011;9322;50.932;5.318;2022-08-01T13:48:43;2.88;;;1.27;;
18391;SDS011;9322;50.932;5.318;2022-08-01T13:51:08;2.70;;;1.40;;
18391;SDS011;9322;50.932;5.318;2022-08-01T13:53:35;4.82;;;1.33;;
18391;SDS011;9322;50.932;5.318;2022-08-01T13:56:00;1.98;;;1.38;;
18391;SDS011;9322;50.932;5.318;2022-08-01T13:58:26;4.10;;;1.70;;
18391;SDS011;9322;50.932;5.318;2022-08-01T14:00:53;4.40;;;1.85;;
18391;SDS011;9322;50.932;5.318;2022-08-01T14:03:20;4.35;;;1.90;;
18391;SDS011;9322;50.932;5.318;2022-08-01T14:05:46;4.05;;;2.13;;
18391;SDS011;9322;50.932;5.318;2022-08-01T14:08:12;3.90;;;1.63;;
18391;SDS011;9322;50.932;5.318;2022-08-01T14:10:38;2.85;;;1.70;;
18391;SDS011;9322;50.932;5.318;2022-08-01T14:13:04;2.97;;;1.80;;
18391;SDS011;9322;50.932;5.318;2022-08-01T14:15:30;5.43;;;1.80;;
18391;SDS011;9322;50.932;5.318;2022-08-01T14:17:57;6.18;;;1.85;;
18391;SDS011;9322;50.932;5.318;2022-08-01T14:20:24;2.10;;;1.60;;
18391;SDS011;9322;50.932;5.318;2022-08-01T14:22:49;5.70;;;2.13;;
18391;SDS011;9322;50.932;5.318;2022-08-01T14:25:15;3.97;;;1.77;;
18391;SDS011;9322;50.932;5.318;2022-08-01T14:27:43;2.78;;;1.80;;
18391;SDS011;9322;50.932;5.318;2022-08-01T14:30:09;2.67;;;2.10;;
18391;SDS011;9322;50.932;5.318;2022-08-01T14:32:36;4.10;;;1.80;;
18391;SDS011;9322;50.932;5.318;2022-08-01T14:35:03;7.43;;;2.17;;
18391;SDS011;9322;50.932;5.318;2022-08-01T14:37:31;3.78;;;2.10;;
18391;SDS011;9322;50.932;5.318;2022-08-01T14:39:57;3.17;;;1.90;;
18391;SDS011;9322;50.932;5.318;2022-08-01T14:42:23;2.70;;;1.90;;
18391;SDS011;9322;50.932;5.318;2022-08-01T14:44:50;6.57;;;1.85;;
18391;SDS011;9322;50.932;5.318;2022-08-01T14:47:16;3.78;;;1.95;;
18391;SDS011;9322;50.932;5.318;2022-08-01T14:49:41;3.58;;;1.73;;
18391;SDS011;9322;50.932;5.318;2022-08-01T14:52:07;5.30;;;2.40;;
18391;SDS011;9322;50.932;5.318;2022-08-01T14:54:33;4.57;;;2.05;;
18391;SDS011;9322;50.932;5.318;2022-08-01T14:56:59;3.33;;;1.88;;
18391;SDS011;9322;50.932;5.318;2022-08-01T14:59:24;4.10;;;2.00;;
18391;SDS011;9322;50.932;5.318;2022-08-01T15:01:50;3.50;;;2.03;;
18391;SDS011;9322;50.932;5.318;2022-08-01T15:04:16;5.00;;;1.67;;
18391;SDS011;9322;50.932;5.318;2022-08-01T15:06:43;3.58;;;2.08;;
18391;SDS011;9322;50.932;5.318;2022-08-01T15:09:09;5.55;;;2.10;;
18391;SDS011;9322;50.932;5.318;2022-08-01T15:11:35;3.78;;;1.83;;
18391;SDS011;9322;50.932;5.318;2022-08-01T15:14:01;5.22;;;2.10;;
18391;SDS011;9322;50.932;5.318;2022-08-01T15:16:45;2.95;;;2.00;;
18391;SDS011;9322;50.932;5.318;2022-08-01T15:19:11;4.03;;;2.10;;
18391;SDS011;9322;50.932;5.318;2022-08-01T15:21:36;3.88;;;2.10;;
18391;SDS011;9322;50.932;5.318;2022-08-01T15:24:02;3.08;;;2.03;;
18391;SDS011;9322;50.932;5.318;2022-08-01T15:26:28;4.05;;;1.90;;
18391;SDS011;9322;50.932;5.318;2022-08-01T15:28:54;5.53;;;2.00;;
18391;SDS011;9322;50.932;5.318;2022-08-01T15:31:20;3.17;;;2.03;;
18391;SDS011;9322;50.932;5.318;2022-08-01T15:33:46;4.60;;;1.80;;
18391;SDS011;9322;50.932;5.318;2022-08-01T15:36:11;5.85;;;1.92;;
18391;SDS011;9322;50.932;5.318;2022-08-01T15:38:37;4.45;;;2.03;;
18391;SDS011;9322;50.932;5.318;2022-08-01T15:41:03;8.68;;;2.17;;
18391;SDS011;9322;50.932;5.318;2022-08-01T15:43:28;4.95;;;1.83;;